createdAt,value
2022-08-22T00:00:13.680Z,99.90
2022-08-22T00:03:02.741Z,98.50
2022-08-22T00:05:55.230Z,99.90
2022-08-22T00:08:40.144Z,99.90
2022-08-22T00:11:18.015Z,99.90
2022-08-22T00:14:01.491Z,99.90
2022-08-22T00:16:43.515Z,99.90
2022-08-22T00:19:31.632Z,99.90
2022-08-22T00:22:45.480Z,99.90
2022-08-22T00:25:30.167Z,99.90
2022-08-22T00:28:09.023Z,99.90
2022-08-22T00:30:49.801Z,99.90
2022-08-22T00:33:28.000Z,99.90
2022-08-22T00:36:07.545Z,99.90
2022-08-22T00:38:38.427Z,99.90
2022-08-22T00:41:28.741Z,99.90
2022-08-22T00:44:17.078Z,99.90
2022-08-22T00:46:56.649Z,99.90
2022-08-22T00:49:38.784Z,99.90
2022-08-22T00:52:36.833Z,99.90
2022-08-22T00:55:37.643Z,99.90
2022-08-22T00:58:16.225Z,99.90
2022-08-22T01:00:51.738Z,99.90
2022-08-22T01:03:39.194Z,99.90
2022-08-22T01:06:30.902Z,99.90
2022-08-22T01:09:15.735Z,99.90
2022-08-22T01:11:57.182Z,99.90
2022-08-22T01:14:47.748Z,99.90
2022-08-22T01:17:39.037Z,99.90
2022-08-22T01:20:33.102Z,99.90
2022-08-22T01:23:12.304Z,99.90
2022-08-22T01:26:15.899Z,99.90
2022-08-22T01:28:53.112Z,99.90
2022-08-22T01:31:56.797Z,99.90
2022-08-22T01:34:42.076Z,99.90
2022-08-22T01:37:43.727Z,99.90
2022-08-22T01:40:23.163Z,99.90
2022-08-22T01:43:43.888Z,99.90
2022-08-22T01:46:23.920Z,99.90
2022-08-22T01:48:53.812Z,99.90
2022-08-22T01:51:38.328Z,99.90
2022-08-22T01:54:23.372Z,99.90
2022-08-22T01:56:51.340Z,99.90
2022-08-22T01:59:33.985Z,99.90
2022-08-22T02:02:19.665Z,99.90
2022-08-22T02:05:02.688Z,99.90
2022-08-22T02:07:41.805Z,99.90
2022-08-22T02:10:38.127Z,99.90
2022-08-22T02:13:14.304Z,99.90
2022-08-22T02:15:41.056Z,99.90
2022-08-22T02:18:36.930Z,99.90
2022-08-22T02:21:12.128Z,99.90
2022-08-22T02:24:04.828Z,99.90
2022-08-22T02:27:12.276Z,99.90
2022-08-22T02:30:04.043Z,99.90
2022-08-22T02:32:39.982Z,99.90
2022-08-22T02:35:37.696Z,99.90
2022-08-22T02:38:26.989Z,99.90
2022-08-22T02:41:21.725Z,99.90
2022-08-22T02:43:53.698Z,99.90
2022-08-22T02:46:29.586Z,99.90
2022-08-22T02:49:17.962Z,99.90
2022-08-22T02:52:07.051Z,99.90
2022-08-22T02:54:45.954Z,99.90
2022-08-22T02:57:31.625Z,99.90
2022-08-22T03:00:32.401Z,99.90
2022-08-22T03:03:02.696Z,99.90
2022-08-22T03:05:40.252Z,99.90
2022-08-22T03:08:33.099Z,99.90
2022-08-22T03:11:16.917Z,99.90
2022-08-22T03:13:46.424Z,99.90
2022-08-22T03:16:18.304Z,99.90
2022-08-22T03:18:56.235Z,99.90
2022-08-22T03:21:45.531Z,99.90
2022-08-22T03:24:22.741Z,99.90
2022-08-22T03:27:04.913Z,99.90
2022-08-22T03:29:47.963Z,99.90
2022-08-22T03:32:22.146Z,99.90
2022-08-22T03:35:03.655Z,99.90
2022-08-22T03:37:39.379Z,99.90
2022-08-22T03:44:15.013Z,99.90
2022-08-22T03:47:03.451Z,99.90
2022-08-22T03:49:42.461Z,99.90
2022-08-22T03:52:28.010Z,99.90
2022-08-22T03:54:57.873Z,99.90
2022-08-22T03:57:36.481Z,99.90
2022-08-22T04:00:28.138Z,99.90
2022-08-22T04:03:04.984Z,99.90
2022-08-22T04:05:41.086Z,99.90
2022-08-22T04:08:26.300Z,99.90
2022-08-22T04:11:39.169Z,99.90
2022-08-22T04:14:33.734Z,99.90
2022-08-22T04:17:47.280Z,99.90
2022-08-22T04:20:24.871Z,99.90
2022-08-22T04:23:29.173Z,99.90
2022-08-22T04:26:11.951Z,99.90
2022-08-22T04:28:53.079Z,99.90
2022-08-22T04:31:34.718Z,99.90
2022-08-22T04:34:15.237Z,99.90
2022-08-22T04:36:55.313Z,99.90
2022-08-22T04:39:29.112Z,99.90
2022-08-22T04:42:31.862Z,99.90
2022-08-22T04:45:08.561Z,99.90
2022-08-22T04:48:01.119Z,99.90
2022-08-22T04:50:45.299Z,99.90
2022-08-22T04:53:48.774Z,99.90
2022-08-22T04:56:46.838Z,99.90
2022-08-22T04:59:19.222Z,99.90
2022-08-22T05:02:06.685Z,99.90
2022-08-22T05:04:40.529Z,99.90
2022-08-22T05:07:14.147Z,99.90
2022-08-22T05:09:48.588Z,99.90
2022-08-22T05:12:21.789Z,99.90
2022-08-22T05:14:58.917Z,99.90
2022-08-22T05:17:29.777Z,99.90
2022-08-22T05:20:02.500Z,99.90
2022-08-22T05:22:34.880Z,99.90
2022-08-22T05:25:11.027Z,99.90
2022-08-22T05:27:56.633Z,99.90
2022-08-22T05:30:27.844Z,99.90
2022-08-22T05:33:16.888Z,99.90
2022-08-22T05:35:53.426Z,99.90
2022-08-22T05:38:28.028Z,99.90
2022-08-22T05:41:01.593Z,99.90
2022-08-22T05:43:28.804Z,99.90
2022-08-22T05:45:58.482Z,99.90
2022-08-22T05:48:42.109Z,99.90
2022-08-22T05:51:29.667Z,99.90
2022-08-22T05:54:13.682Z,99.90
2022-08-22T05:57:09.938Z,99.90
2022-08-22T05:59:41.705Z,99.90
2022-08-22T06:02:48.252Z,99.90
2022-08-22T06:05:30.659Z,99.90
2022-08-22T06:08:07.425Z,99.90
2022-08-22T06:10:45.712Z,99.90
2022-08-22T06:13:26.650Z,99.90
2022-08-22T06:16:34.963Z,99.90
2022-08-22T06:19:04.031Z,99.90
2022-08-22T06:21:49.491Z,99.90
2022-08-22T06:24:22.563Z,99.90
2022-08-22T06:26:52.600Z,99.90
2022-08-22T06:29:37.671Z,99.90
2022-08-22T06:32:15.072Z,99.90
2022-08-22T06:34:44.817Z,99.90
2022-08-22T06:37:20.374Z,99.90
2022-08-22T06:39:50.974Z,99.90
2022-08-22T06:42:32.064Z,99.90
2022-08-22T06:45:14.849Z,99.90
2022-08-22T06:47:52.179Z,99.90
2022-08-22T06:50:51.661Z,99.90
2022-08-22T06:53:20.141Z,99.90
2022-08-22T06:55:54.576Z,99.90
2022-08-22T06:58:33.979Z,99.90
2022-08-22T07:01:12.402Z,99.90
2022-08-22T07:03:58.354Z,99.90
2022-08-22T07:06:35.923Z,99.90
2022-08-22T07:09:05.754Z,99.90
2022-08-22T07:11:42.572Z,99.90
2022-08-22T07:14:16.577Z,99.90
2022-08-22T07:17:00.932Z,99.90
2022-08-22T07:19:41.542Z,99.90
2022-08-22T07:22:26.933Z,99.90
2022-08-22T07:25:12.548Z,99.90
2022-08-22T07:28:08.612Z,99.90
2022-08-22T07:30:45.780Z,99.90
2022-08-22T07:33:26.634Z,99.90
2022-08-22T07:36:00.250Z,99.90
2022-08-22T07:38:43.678Z,99.90
2022-08-22T07:41:20.048Z,99.90
2022-08-22T07:43:52.739Z,99.90
2022-08-22T07:46:47.505Z,99.90
2022-08-22T07:49:16.924Z,99.90
2022-08-22T07:51:43.547Z,99.90
2022-08-22T07:54:20.118Z,99.90
2022-08-22T07:57:04.777Z,99.90
2022-08-22T07:59:34.477Z,99.90
2022-08-22T08:02:04.910Z,99.90
2022-08-22T08:04:39.526Z,99.90
2022-08-22T08:07:09.741Z,99.90
2022-08-22T08:09:45.843Z,99.90
2022-08-22T08:12:15.212Z,99.90
2022-08-22T08:14:45.888Z,99.90
2022-08-22T08:17:31.984Z,99.90
2022-08-22T08:20:05.075Z,99.90
2022-08-22T08:22:33.528Z,99.90
2022-08-22T08:25:01.439Z,99.90
2022-08-22T08:27:52.655Z,99.90
2022-08-22T08:30:34.229Z,99.90
2022-08-22T08:33:24.659Z,99.90
2022-08-22T08:36:02.522Z,99.90
2022-08-22T08:38:36.952Z,99.90
2022-08-22T08:41:25.485Z,97.20
2022-08-22T08:43:58.597Z,96.70
2022-08-22T08:46:50.224Z,95.70
2022-08-22T08:49:42.838Z,93.70
2022-08-22T08:52:18.708Z,94.80
2022-08-22T08:55:19.626Z,93.30
2022-08-22T08:58:10.989Z,91.70
2022-08-22T09:01:00.611Z,88.20
2022-08-22T09:04:04.433Z,84.10
2022-08-22T09:06:50.707Z,86.10
2022-08-22T09:10:08.672Z,81.60
2022-08-22T09:13:13.864Z,77.20
2022-08-22T09:15:59.702Z,78.90
2022-08-22T09:19:01.647Z,74.50
2022-08-22T09:22:16.225Z,72.20
2022-08-22T09:24:48.812Z,70.80
2022-08-22T09:27:24.846Z,73.60
2022-08-22T09:30:02.025Z,74.60
2022-08-22T09:32:42.338Z,74.60
2022-08-22T09:35:25.008Z,71.70
2022-08-22T09:38:18.137Z,68.70
2022-08-22T09:41:24.891Z,63.90
2022-08-22T09:44:17.317Z,60.60
2022-08-22T09:46:49.712Z,61.50
2022-08-22T09:49:25.071Z,63.50
2022-08-22T09:52:34.279Z,61.90
2022-08-22T09:55:15.891Z,58.10
2022-08-22T09:58:02.905Z,55.10
2022-08-22T10:00:54.524Z,56.20
2022-08-22T10:03:50.204Z,56.50
2022-08-22T10:06:26.820Z,57.30
2022-08-22T10:09:11.885Z,58.20
2022-08-22T10:11:44.668Z,56.90
2022-08-22T10:14:22.421Z,55.00
2022-08-22T10:16:58.700Z,53.20
2022-08-22T10:19:47.593Z,50.40
2022-08-22T10:22:22.758Z,52.20
2022-08-22T10:25:24.390Z,52.10
2022-08-22T10:28:03.904Z,50.40
2022-08-22T10:30:46.044Z,49.10
2022-08-22T10:33:48.736Z,49.50
2022-08-22T10:36:27.865Z,49.70
2022-08-22T10:38:57.885Z,50.30
2022-08-22T10:41:36.113Z,51.10
2022-08-22T10:44:17.119Z,53.00
2022-08-22T10:47:00.922Z,52.10
2022-08-22T10:49:37.854Z,50.90
2022-08-22T10:52:18.614Z,50.10
2022-08-22T10:55:25.885Z,51.30
2022-08-22T10:58:04.577Z,50.80
2022-08-22T11:00:46.023Z,52.40
2022-08-22T11:03:29.896Z,49.40
2022-08-22T11:06:03.629Z,47.70
2022-08-22T11:08:45.396Z,45.20
2022-08-22T11:11:33.938Z,44.00
2022-08-22T11:14:00.788Z,44.10
2022-08-22T11:16:54.946Z,43.70
2022-08-22T11:19:27.936Z,44.60
2022-08-22T11:22:15.302Z,44.60
2022-08-22T11:25:04.243Z,44.30
2022-08-22T11:27:53.181Z,45.70
2022-08-22T11:30:25.935Z,47.80
2022-08-22T11:33:02.483Z,46.40
2022-08-22T11:35:44.292Z,45.70
2022-08-22T11:38:36.251Z,45.70
2022-08-22T11:41:24.423Z,45.30
2022-08-22T11:44:03.868Z,45.00
2022-08-22T11:46:35.291Z,46.40
2022-08-22T11:49:32.920Z,46.00
2022-08-22T11:52:44.544Z,45.30
2022-08-22T11:55:21.655Z,46.20
2022-08-22T11:57:57.217Z,46.70
2022-08-22T12:00:43.893Z,47.10
2022-08-22T12:03:23.955Z,47.50
2022-08-22T12:06:20.490Z,44.70
2022-08-22T12:08:49.354Z,44.50
2022-08-22T12:11:28.056Z,43.10
2022-08-22T12:14:04.169Z,43.60
2022-08-22T12:16:36.210Z,45.20
2022-08-22T12:19:13.232Z,46.50
2022-08-22T12:22:08.101Z,45.70
2022-08-22T12:25:05.428Z,44.80
2022-08-22T12:27:48.592Z,45.60
2022-08-22T12:30:41.517Z,47.30
2022-08-22T12:33:29.886Z,46.20
2022-08-22T12:36:21.903Z,46.30
2022-08-22T12:39:26.179Z,46.40
2022-08-22T12:42:11.076Z,45.50
2022-08-22T12:44:56.609Z,45.90
2022-08-22T12:47:51.401Z,47.50
2022-08-22T12:50:43.776Z,49.20
2022-08-22T12:53:24.985Z,48.00
2022-08-22T12:56:03.320Z,46.20
2022-08-22T12:59:10.471Z,46.70
2022-08-22T13:01:47.172Z,47.80
2022-08-22T13:04:19.340Z,47.20
2022-08-22T13:07:22.819Z,46.30
2022-08-22T13:09:55.485Z,44.00
2022-08-22T13:12:53.770Z,42.10
2022-08-22T13:15:28.317Z,43.70
2022-08-22T13:18:13.333Z,47.30
2022-08-22T13:20:50.478Z,47.20
2022-08-22T13:23:17.605Z,45.60
2022-08-22T13:26:03.526Z,45.40
2022-08-22T13:28:43.194Z,45.50
2022-08-22T13:31:23.996Z,48.10
2022-08-22T13:33:52.681Z,49.10
2022-08-22T13:36:21.351Z,50.10
2022-08-22T13:38:57.888Z,51.70
2022-08-22T13:41:30.785Z,52.50
2022-08-22T13:44:09.909Z,53.10
2022-08-22T13:46:48.340Z,54.30
2022-08-22T13:49:38.765Z,54.00
2022-08-22T13:52:14.537Z,53.10
2022-08-22T13:55:16.147Z,53.70
2022-08-22T13:57:45.381Z,54.00
2022-08-22T14:00:28.863Z,53.60
2022-08-22T14:03:05.462Z,53.40
2022-08-22T14:05:40.233Z,53.00
2022-08-22T14:08:18.494Z,53.20
2022-08-22T14:11:03.518Z,53.80
2022-08-22T14:13:39.288Z,53.30
2022-08-22T14:16:27.125Z,53.10
2022-08-22T14:18:58.589Z,52.70
2022-08-22T14:21:26.007Z,53.10
2022-08-22T14:24:05.433Z,52.70
2022-08-22T14:26:47.780Z,52.80
2022-08-22T14:29:17.844Z,52.60
2022-08-22T14:32:01.614Z,52.30
2022-08-22T14:34:32.053Z,52.90
2022-08-22T14:37:07.949Z,52.50
2022-08-22T14:39:43.696Z,52.30
2022-08-22T14:42:33.029Z,52.80
2022-08-22T14:45:22.362Z,53.20
2022-08-22T14:47:55.659Z,53.60
2022-08-22T14:50:46.199Z,54.00
2022-08-22T14:53:25.154Z,54.20
2022-08-22T14:56:37.208Z,55.20
2022-08-22T14:59:12.746Z,56.10
2022-08-22T15:02:06.122Z,56.30
2022-08-22T15:04:41.148Z,56.40
2022-08-22T15:07:10.381Z,56.70
2022-08-22T15:09:48.298Z,56.80
2022-08-22T15:12:24.770Z,57.30
2022-08-22T15:14:55.992Z,57.30
2022-08-22T15:17:46.394Z,57.30
2022-08-22T15:20:28.597Z,58.30
2022-08-22T15:23:02.312Z,59.20
2022-08-22T15:25:37.612Z,59.90
2022-08-22T15:28:20.048Z,59.30
2022-08-22T15:31:03.736Z,58.60
2022-08-22T15:33:35.745Z,58.60
2022-08-22T15:36:21.631Z,58.50
2022-08-22T15:38:51.941Z,58.90
2022-08-22T15:41:36.589Z,58.40
2022-08-22T15:44:15.054Z,58.20
2022-08-22T15:47:25.979Z,58.70
2022-08-22T15:50:05.441Z,58.00
2022-08-22T15:52:59.814Z,57.90
2022-08-22T15:55:34.548Z,57.10
2022-08-22T15:58:07.879Z,57.10
2022-08-22T16:00:41.938Z,57.90
2022-08-22T16:03:29.704Z,57.70
2022-08-22T16:06:07.486Z,57.20
2022-08-22T16:08:43.947Z,57.20
2022-08-22T16:11:19.340Z,57.00
2022-08-22T16:13:48.109Z,57.30
2022-08-22T16:16:27.311Z,57.30
2022-08-22T16:18:54.377Z,57.70
2022-08-22T16:21:23.846Z,57.80
2022-08-22T16:23:53.842Z,57.80
2022-08-22T16:26:30.050Z,57.70
2022-08-22T16:29:05.709Z,58.10
2022-08-22T16:31:35.476Z,58.70
2022-08-22T16:34:37.669Z,59.20
2022-08-22T16:37:17.997Z,59.90
2022-08-22T16:40:04.296Z,60.40
2022-08-22T16:42:39.492Z,60.20
2022-08-22T16:45:15.688Z,60.00
2022-08-22T16:47:58.529Z,59.90
2022-08-22T16:50:37.251Z,59.80
2022-08-22T16:53:04.056Z,59.60
2022-08-22T16:55:31.188Z,59.90
2022-08-22T16:58:35.713Z,59.90
2022-08-22T17:01:27.213Z,60.30
2022-08-22T17:03:57.025Z,60.50
2022-08-22T17:06:42.484Z,60.30
2022-08-22T17:09:33.916Z,61.40
2022-08-22T17:12:07.005Z,61.80
2022-08-22T17:15:13.121Z,62.30
2022-08-22T17:18:11.828Z,62.60
2022-08-22T17:21:17.561Z,62.40
2022-08-22T17:24:04.598Z,62.80
2022-08-22T17:26:55.488Z,62.80
2022-08-22T17:29:49.852Z,63.50
2022-08-22T17:32:40.901Z,64.60
2022-08-22T17:35:47.113Z,64.90
2022-08-22T17:38:34.991Z,65.50
2022-08-22T17:41:04.904Z,65.80
2022-08-22T17:43:59.018Z,65.90
2022-08-22T17:46:50.869Z,66.10
2022-08-22T17:49:36.040Z,66.70
2022-08-22T17:52:34.190Z,66.90
2022-08-22T17:55:41.800Z,67.20
2022-08-22T17:58:37.416Z,67.50
2022-08-22T18:01:31.485Z,67.60
2022-08-22T18:04:02.624Z,67.80
2022-08-22T18:06:33.686Z,67.70
2022-08-22T18:09:20.599Z,68.20
2022-08-22T18:12:04.872Z,67.70
2022-08-22T18:15:21.400Z,68.00
2022-08-22T18:18:01.459Z,68.50
2022-08-22T18:20:44.734Z,68.30
2022-08-22T18:23:40.342Z,68.60
2022-08-22T18:26:27.044Z,69.40
2022-08-22T18:29:12.097Z,69.80
2022-08-22T18:31:48.948Z,69.90
2022-08-22T18:34:26.669Z,70.10
2022-08-22T18:37:19.255Z,70.00
2022-08-22T18:39:59.953Z,70.30
2022-08-22T18:42:29.925Z,70.40
2022-08-22T18:44:57.103Z,70.80
2022-08-22T18:47:29.938Z,71.30
2022-08-22T18:49:57.896Z,71.30
2022-08-22T18:52:27.617Z,71.70
2022-08-22T18:55:21.576Z,72.60
2022-08-22T18:58:04.932Z,73.00
2022-08-22T19:01:02.692Z,73.10
2022-08-22T19:04:00.264Z,73.40
2022-08-22T19:07:00.020Z,73.70
2022-08-22T19:09:49.301Z,74.50
2022-08-22T19:12:43.783Z,74.40
2022-08-22T19:15:22.405Z,75.30
2022-08-22T19:18:19.224Z,75.90
2022-08-22T19:21:32.004Z,76.70
2022-08-22T19:23:59.640Z,76.60
2022-08-22T19:26:44.689Z,76.50
2022-08-22T19:29:17.353Z,77.40
2022-08-22T19:31:51.098Z,78.20
2022-08-22T19:34:29.762Z,78.80
2022-08-22T19:37:30.842Z,78.90
2022-08-22T19:40:01.501Z,79.50
2022-08-22T19:42:36.232Z,81.10
2022-08-22T19:45:18.940Z,82.30
2022-08-22T19:47:57.181Z,83.50
2022-08-22T19:50:31.096Z,85.10
2022-08-22T19:52:57.975Z,87.30
2022-08-22T19:55:34.121Z,89.70
2022-08-22T19:58:19.012Z,90.60
2022-08-22T20:01:06.169Z,90.60
2022-08-22T20:03:55.881Z,91.00
2022-08-22T20:07:14.710Z,91.60
2022-08-22T20:10:04.536Z,92.70
2022-08-22T20:12:59.630Z,93.10
2022-08-22T20:15:29.281Z,94.00
2022-08-22T20:18:12.283Z,95.20
2022-08-22T20:20:58.251Z,96.40
2022-08-22T20:23:30.553Z,97.70
2022-08-22T20:25:58.624Z,98.70
2022-08-22T20:28:36.878Z,99.80
2022-08-22T20:31:10.717Z,99.90
2022-08-22T20:33:41.852Z,99.90
2022-08-22T20:36:21.193Z,99.90
2022-08-22T20:39:05.799Z,99.90
2022-08-22T20:41:41.379Z,99.90
2022-08-22T20:44:12.920Z,99.90
2022-08-22T20:46:53.286Z,99.90
2022-08-22T20:49:40.764Z,99.90
2022-08-22T20:52:21.528Z,99.90
2022-08-22T20:55:19.277Z,99.90
2022-08-22T20:57:51.965Z,99.90
2022-08-22T21:00:46.574Z,99.90
2022-08-22T21:03:49.929Z,99.90
2022-08-22T21:06:29.406Z,99.90
2022-08-22T21:09:39.774Z,99.90
2022-08-22T21:12:09.286Z,99.90
2022-08-22T21:14:44.226Z,99.90
2022-08-22T21:17:29.481Z,99.90
2022-08-22T21:20:35.608Z,99.90
2022-08-22T21:23:10.001Z,99.90
2022-08-22T21:25:58.001Z,99.90
2022-08-22T21:28:39.689Z,99.90
2022-08-22T21:31:19.369Z,99.90
2022-08-22T21:33:49.593Z,99.90
2022-08-22T21:36:22.372Z,99.90
2022-08-22T21:39:00.157Z,99.90
2022-08-22T21:41:37.193Z,99.90
2022-08-22T21:44:31.703Z,99.90
2022-08-22T21:47:30.514Z,99.90
2022-08-22T21:50:13.298Z,99.90
2022-08-22T21:52:59.885Z,99.90
2022-08-22T21:55:26.791Z,99.90
2022-08-22T21:58:22.031Z,99.90
2022-08-22T22:01:24.869Z,99.90
2022-08-22T22:03:52.211Z,99.90
2022-08-22T22:06:19.509Z,99.90
2022-08-22T22:08:46.406Z,99.90
2022-08-22T22:11:15.085Z,99.90
2022-08-22T22:13:42.649Z,99.90
2022-08-22T22:16:12.116Z,99.90
2022-08-22T22:18:39.641Z,99.90
2022-08-22T22:21:06.944Z,99.90
2022-08-22T22:23:33.952Z,99.90
2022-08-22T22:26:03.947Z,99.90
2022-08-22T22:28:37.739Z,99.90
2022-08-22T22:31:04.834Z,99.90
2022-08-22T22:33:35.108Z,99.90
2022-08-22T22:36:16.091Z,99.90
2022-08-22T22:38:43.056Z,99.90
2022-08-22T22:41:11.629Z,99.90
2022-08-22T22:43:38.609Z,99.90
2022-08-22T22:46:06.404Z,99.90
2022-08-22T22:48:33.744Z,99.90
2022-08-22T22:51:08.189Z,99.90
2022-08-22T22:53:40.149Z,99.90
2022-08-22T22:56:13.016Z,99.90
2022-08-22T22:58:41.064Z,99.90
2022-08-22T23:01:15.408Z,99.90
2022-08-22T23:03:42.958Z,99.90
2022-08-22T23:06:18.930Z,99.90
2022-08-22T23:08:46.492Z,99.90
2022-08-22T23:11:19.097Z,99.90
2022-08-22T23:13:48.186Z,99.90
2022-08-22T23:16:18.367Z,99.90
2022-08-22T23:18:45.912Z,99.90
2022-08-22T23:21:14.467Z,99.90
2022-08-22T23:23:41.653Z,99.90
2022-08-22T23:26:09.634Z,99.90
2022-08-22T23:28:37.190Z,99.90
2022-08-22T23:31:19.285Z,99.90
2022-08-22T23:33:46.392Z,99.90
2022-08-22T23:36:16.283Z,99.90
2022-08-22T23:38:44.345Z,99.90
2022-08-22T23:41:13.349Z,99.90
2022-08-22T23:43:45.148Z,99.90
2022-08-22T23:46:13.868Z,99.90
2022-08-22T23:48:41.995Z,99.90
2022-08-22T23:51:13.553Z,99.90
2022-08-22T23:53:40.934Z,99.90
2022-08-22T23:56:22.676Z,99.90
2022-08-22T23:58:51.117Z,99.90
